Overview Statistics Trail Chart Weather Telemetry Raw packets
 

This is the latest recevied weather packets stored in our database for station/object SV4JYD-13. If no packets are shown the sender has not sent any weather packets the latest 10 day(s).

<< 1 2 3 4 5 6 >>
Time Temp. Humidity Pressure Rain* Wind** Luminosity Snow
1777982503 21.67° C 40% 1016 hPa 0 mm - - -
1777981628 22.22° C 40% 1016 hPa 0 mm - - -
1777980702 22.78° C 40% 1016 hPa 0 mm - - -
1777979802 23.33° C 40% 1016 hPa 0 mm - - -
1777978902 23.89° C 40% 1016 hPa 0 mm - - -
1777978001 24.44° C 40% 1016 hPa 0 mm - - -
1777977101 25° C 10% - 0 mm - - -
1777976201 24.44° C 10% - 0 mm - - -
1777975301 24.44° C 10% - 0 mm - - -
1777974400 21.67° C 10% - 0 mm - - -
1777973500 21.67° C 10% - 0 mm - - -
1777972600 21.67° C 10% - 0 mm - - -
1777970799 22.22° C 10% - 0 mm - - -
1777969899 19.44° C 68% 1018 hPa 0 mm - - -
1777968999 19.44° C 59% 1018 hPa 0 mm - - -
1777968098 20° C 59% 1018 hPa 0 mm - - -
1777967198 20.56° C 48% 1018 hPa 0 mm - - -
1777966319 20° C 51% 1018 hPa 0 mm - - -
1777965398 20° C 55% 1018 hPa 0 mm - - -
1777964497 19.44° C 52% 1018 hPa 0 mm - - -
1777963597 18.33° C 58% 1018 hPa 0 mm - - -
1777962697 17.22° C 67% 1018 hPa 0 mm - - -
1777961797 17.22° C 67% 1018 hPa 0 mm - - -
1777960896 12.78° C 84% 1018 hPa 0 mm - - -
1777959096 13.33° C 80% 1018 hPa 0 mm - - -

* Rain latest hour (hover to see other rain measurements)
** Current wind speed in m/s (hover to see current wind gust speed)